Login to view Products
 
Saturday, May 28, 2022 (10:53 UTC)
Sharjah International Airport
ICAO: OMSJ
IATA: SHJ
  • METAR OMSJ 281030Z 30009KT 260V330 CAVOK 38/18 Q1001 NOSIG=
  • TAF OMSJ 280500Z 2806/2912 22008KT CAVOK BECMG 2807/2809 30013KT BECMG 2816/2818 17005KT BECMG 2908/2910 32012KT=
10-- D:\Input Parser\Destinations\Final\05\OMSJ_TAF.txt-- 28/05/2022-- 28/05/2022-- 3